Airfield :
LOGIN :

Register | Disclaimer

   EN    FR    IT 

 










Legend :    VFR   Marginal VFR   IFR   Intensive IFR   Very Intensive IFR
Visi :
Ceiling :
>= 8 km
>= 3000ft
5 to 8 km
1000 to 3000 ft
1500m to 5 km
500 to 1000 ft
800 to 1500m
200 to 500 ft
< 800m
< 200 ft
Symbols :   Thunderstorms  Fog  Heavy snow  Heavy precipitations  Wind > 20 kt
SIGMETs :     Misc.  Thunderstorms  Icing  Turbulence  Mountain Waves  Volcanic Ashes






- Airport Elevation : 80 ft
- IATA code : LPL


EGGP - Liverpool John Lennon

CURRENT METAR :
  • 221520Z 25009KT 9999 VCSH FEW025 BKN045 11/07 Q1007

EXPIRED METARs :
  • 221450Z 26011KT 9999 VCSH FEW025 BKN041 11/07 Q1007
  • 221420Z 26013KT 9999 VCSH FEW020 SCT030 BKN041 12/07 Q1007
  • 221350Z 25010KT 9999 VCSH FEW019 SCT025 BKN040 11/08 Q1006
  • 221320Z 25013KT 9999 7000S VCSH FEW010 SCT019 BKN036 11/08 Q1006
  • 221250Z 26015KT 9999 VCSH FEW010 SCT019 BKN040 13/08 Q1006

TAF TAF EGGP
Valid from the 22 at 12:00 until the 23 at 12:00 UTC


221051Z 2212/2312 26010KT 9999 SCT030
BECMG 2218/2221 19007KT
TEMPO 2307/2312 6000 RA
PROB30
TEMPO 2309/2311 22015G25KT 4000 +RA BKN012
ATIS : +44 151 907 2000 (option 5 or ext 5150)
Met : +44 871 750 5150



MET'MAP, your aeronautical weather chart ! - Copyright ORBIFLY December 2007 - Disclaimer

ORBIFLY MET'MAP TEAM :

Programming & Development : Alexandra Zaïnal
Concept & original design : Baudouin d'Aumeries
Assistance for programming : Marc-Olivier Méhu
Technical & hardware support : Manuel Goepfert

Contact : metmap@orbifly.com




SOURCES & CREDITS :

   NOAA